Coeburn, VA

5:34 PM EDT on July 25, 2016 (GMT -0400)
Rock Bar Road | | Change Station

Elev 2579 ft 36.96 °N, 82.57 °W | Updated 3 minutes ago

Mostly Cloudy
Mostly Cloudy
93.7 °F
Feels Like 103 °F
N
3.7
Wind Variable Wind from NE

Today
High -- | Low -- °F
--% Chance of Precip.
Yesterday
High -- | Low -- °F
Precip. -- in
Pressure 30.10 in
Visibility 10.0 miles
Clouds Scattered Clouds 3200 ft
Mostly Cloudy 4200 ft
Mostly Cloudy 11000 ft
Heat Index 103 °F
Dew Point 73 °F
Humidity 51%
Rainfall 0.00 in
Snow Depth Not available.
6:30 AM 8:42 PM
Waning Gibbous, 62% visible
METAR KLNP 252115Z AUTO 01005KT 10SM SCT032 BKN042 BKN110 31/16 A3010 RMK AO2 LTG DSNT SW THRU NW
Pressure 30.10 in
Visibility 10.0 miles
Clouds Scattered Clouds 3200 ft
Mostly Cloudy 4200 ft
Mostly Cloudy 11000 ft
Heat Index 103 °F
Dew Point 73 °F
Humidity 51%
Rainfall 0.00 in
Snow Depth Not available.
6:30 AM 8:42 PM
Waning Gibbous, 62% visible
METAR KLNP 252115Z AUTO 01005KT 10SM SCT032 BKN042 BKN110 31/16 A3010 RMK AO2 LTG DSNT SW THRU NW
Record highs are possible for parts of the Northeast Monday and Tuesday, as parts of the central U.S. take a little breather from the worst of summer's dog day heat.

Expansive high pressure in the upper atmosphere will focus on parts of the East and West this week, sending heat indices well into the triple digits from the Mid-Atlantic states into the South.

10-Day Weather Forecast

Almanac

Astronomy

Jul. 25, 2016 Rise Set
Actual Time
Civil Twilight
Nautical Twilight
Astronomical Twilight
Moon
Length of Visible Light
Length of Day
Tomorrow will be .
, % of the Moon is Illuminated

Today's Extremes

State Highs State Lows

Community

WunderPhotos

Upload Photos

1,927,423 photos uploaded!

WunderBlog® & News

Nearby

Air Quality

  Air Quality AQ Index Pollutant
Not available.

Snow Depth

Station Depth Elevation

Earthquake Activity

City Distance Mag. Time & Date
Minimum magnitude displayed is 2.5.

Coastal Water Temperatures

Place Temperature

Stations

Nearby Weather Stations

Station Location Temp. Windchill Dew Point Humidity Wind Precip. Elev Updated Type
                   

Watches & Warnings

There are currently no watches in effect.